createdAt,value
2023-04-27T00:01:58.361Z,4.38
2023-04-27T00:04:53.333Z,4.32
2023-04-27T00:07:56.921Z,4.30
2023-04-27T00:10:42.028Z,4.27
2023-04-27T00:13:27.261Z,4.27
2023-04-27T00:15:54.284Z,4.18
2023-04-27T00:18:21.616Z,4.11
2023-04-27T00:20:48.576Z,4.09
2023-04-27T00:23:15.543Z,4.03
2023-04-27T00:25:42.456Z,4.03
2023-04-27T00:28:09.360Z,3.98
2023-04-27T00:30:36.385Z,3.96
2023-04-27T00:33:03.326Z,3.91
2023-04-27T00:35:30.283Z,3.81
2023-04-27T00:37:57.207Z,3.72
2023-04-27T00:40:24.182Z,3.65
2023-04-27T00:42:51.181Z,3.59
2023-04-27T00:45:18.147Z,3.01
2023-04-27T00:47:46.297Z,3.52
2023-04-27T00:50:13.252Z,3.26
2023-04-27T00:52:41.074Z,3.36
2023-04-27T00:55:08.575Z,3.26
2023-04-27T00:57:35.982Z,3.21
2023-04-27T01:00:06.858Z,3.13
2023-04-27T01:02:35.344Z,3.09
2023-04-27T01:05:20.268Z,3.02
2023-04-27T01:08:18.539Z,2.91
2023-04-27T01:11:06.264Z,2.77
2023-04-27T01:13:48.859Z,2.65
2023-04-27T01:16:29.736Z,2.61
2023-04-27T01:18:56.681Z,2.58
2023-04-27T01:21:23.658Z,2.50
2023-04-27T01:23:50.721Z,2.45
2023-04-27T01:26:17.682Z,2.39
2023-04-27T01:28:44.765Z,2.36
2023-04-27T01:31:12.328Z,2.33
2023-04-27T01:33:40.257Z,2.26
2023-04-27T01:36:08.225Z,2.18
2023-04-27T01:38:35.437Z,2.06
2023-04-27T01:41:05.029Z,2.10
2023-04-27T01:43:32.466Z,2.09
2023-04-27T01:46:07.663Z,2.02
2023-04-27T01:48:35.570Z,2.01
2023-04-27T01:51:02.836Z,1.99
2023-04-27T01:53:30.345Z,1.93
2023-04-27T01:55:59.791Z,1.79
2023-04-27T01:58:27.448Z,1.67
2023-04-27T02:00:54.501Z,1.62
2023-04-27T02:03:21.932Z,1.59
2023-04-27T02:05:49.504Z,1.60
2023-04-27T02:08:16.441Z,1.61
2023-04-27T02:10:43.454Z,1.47
2023-04-27T02:13:10.356Z,1.56
2023-04-27T02:15:37.470Z,1.54
2023-04-27T02:18:04.943Z,1.50
2023-04-27T02:20:33.262Z,1.44
2023-04-27T02:23:00.183Z,1.38
2023-04-27T02:25:27.168Z,1.34
2023-04-27T02:27:54.304Z,1.32
2023-04-27T02:30:21.845Z,1.28
2023-04-27T02:32:49.238Z,1.24
2023-04-27T02:35:16.477Z,1.06
2023-04-27T02:37:43.487Z,1.17
2023-04-27T02:40:10.673Z,1.13
2023-04-27T02:42:39.190Z,1.11
2023-04-27T02:45:09.474Z,1.12
2023-04-27T02:47:36.446Z,1.09
2023-04-27T02:50:04.330Z,1.07
2023-04-27T02:52:31.332Z,1.06
2023-04-27T02:54:58.328Z,0.94
2023-04-27T02:57:25.397Z,0.94
2023-04-27T02:59:52.364Z,0.89
2023-04-27T03:02:19.295Z,0.86
2023-04-27T03:04:46.248Z,0.83
2023-04-27T03:07:13.200Z,0.83
2023-04-27T03:09:40.180Z,0.85
2023-04-27T03:12:07.133Z,0.85
2023-04-27T03:14:34.031Z,0.84
2023-04-27T03:17:01.164Z,0.80
2023-04-27T03:19:28.246Z,0.85
2023-04-27T03:21:55.339Z,0.89
2023-04-27T03:24:25.741Z,0.90
2023-04-27T03:26:52.974Z,0.93
2023-04-27T03:29:19.886Z,0.94
2023-04-27T03:31:46.846Z,0.90
2023-04-27T03:34:13.789Z,0.92
2023-04-27T03:36:40.654Z,0.91
2023-04-27T03:39:08.296Z,0.93
2023-04-27T03:41:35.169Z,0.94
2023-04-27T03:44:02.107Z,0.95
2023-04-27T03:46:29.185Z,0.99
2023-04-27T03:48:56.261Z,0.99
2023-04-27T03:51:23.188Z,0.99
2023-04-27T03:53:50.101Z,1.02
2023-04-27T03:56:17.121Z,1.04
2023-04-27T03:58:43.996Z,1.07
2023-04-27T04:01:11.235Z,1.10
2023-04-27T04:03:38.248Z,1.14
2023-04-27T04:06:05.789Z,1.14
2023-04-27T04:08:34.465Z,1.19
2023-04-27T04:11:01.609Z,1.27
2023-04-27T04:13:28.556Z,1.27
2023-04-27T04:16:08.433Z,1.32
2023-04-27T04:18:36.435Z,1.31
2023-04-27T04:21:03.958Z,1.44
2023-04-27T04:23:30.925Z,1.47
2023-04-27T04:25:57.962Z,1.53
2023-04-27T04:28:25.683Z,1.66
2023-04-27T04:30:52.732Z,1.78
2023-04-27T04:33:19.791Z,1.95
2023-04-27T04:35:47.212Z,2.14
2023-04-27T04:38:14.348Z,2.31
2023-04-27T04:40:43.841Z,2.61
2023-04-27T04:43:13.698Z,2.85
2023-04-27T04:45:40.792Z,3.02
2023-04-27T04:48:08.859Z,3.22
2023-04-27T04:50:36.349Z,3.36
2023-04-27T04:53:03.302Z,3.41
2023-04-27T04:55:30.268Z,3.66
2023-04-27T04:57:57.148Z,3.76
2023-04-27T05:00:24.097Z,3.90
2023-04-27T05:02:51.199Z,4.16
2023-04-27T05:05:18.215Z,4.35
2023-04-27T05:07:45.184Z,4.71
2023-04-27T05:10:12.434Z,5.42
2023-04-27T05:12:39.452Z,6.12
2023-04-27T05:15:07.049Z,6.79
2023-04-27T05:17:34.038Z,7.43
2023-04-27T05:20:01.206Z,8.06
2023-04-27T05:22:28.124Z,8.51
2023-04-27T05:24:55.798Z,8.49
2023-04-27T05:27:22.721Z,8.45
2023-04-27T05:29:49.722Z,8.58
2023-04-27T05:32:16.620Z,8.63
2023-04-27T05:34:46.706Z,8.57
2023-04-27T05:37:14.901Z,8.40
2023-04-27T05:39:42.574Z,8.20
2023-04-27T05:42:09.573Z,7.89
2023-04-27T05:44:36.538Z,7.69
2023-04-27T05:47:03.500Z,7.60
2023-04-27T05:49:30.480Z,8.01
2023-04-27T05:51:59.215Z,8.34
2023-04-27T05:54:27.716Z,9.03
2023-04-27T05:56:54.674Z,9.32
2023-04-27T05:59:22.141Z,10.05
2023-04-27T06:01:49.299Z,10.42
2023-04-27T06:04:16.816Z,10.26
2023-04-27T06:06:45.058Z,10.43
2023-04-27T06:09:12.147Z,11.05
2023-04-27T06:11:39.210Z,11.47
2023-04-27T06:14:06.173Z,11.72
2023-04-27T06:16:33.621Z,11.40
2023-04-27T06:19:00.575Z,9.93
2023-04-27T06:21:28.421Z,9.26
2023-04-27T06:23:55.367Z,9.09
2023-04-27T06:26:22.317Z,9.79
2023-04-27T06:28:49.457Z,9.53
2023-04-27T06:31:16.747Z,9.64
2023-04-27T06:33:43.902Z,10.88
2023-04-27T06:36:11.076Z,11.56
2023-04-27T06:38:38.018Z,12.03
2023-04-27T06:41:05.176Z,12.25
2023-04-27T06:43:32.123Z,11.76
2023-04-27T06:45:59.017Z,11.78
2023-04-27T06:48:26.029Z,12.00
2023-04-27T06:50:52.953Z,10.84
2023-04-27T06:53:19.890Z,10.42
2023-04-27T06:55:48.572Z,10.95
2023-04-27T06:58:15.780Z,11.40
2023-04-27T07:00:42.845Z,11.89
2023-04-27T07:03:09.914Z,12.17
2023-04-27T07:05:36.906Z,12.30
2023-04-27T07:08:07.216Z,10.81
2023-04-27T07:10:35.827Z,9.50
2023-04-27T07:13:02.764Z,9.38
2023-04-27T07:15:31.827Z,8.84
2023-04-27T07:17:58.874Z,8.69
2023-04-27T07:20:26.028Z,8.60
2023-04-27T07:22:52.948Z,8.29
2023-04-27T07:25:20.135Z,8.03
2023-04-27T07:27:47.077Z,8.19
2023-04-27T07:30:14.598Z,7.89
2023-04-27T07:32:42.107Z,7.89
2023-04-27T07:35:12.321Z,8.10
2023-04-27T07:37:39.281Z,8.55
2023-04-27T07:40:14.884Z,9.01
2023-04-27T07:42:42.367Z,9.83
2023-04-27T07:45:10.133Z,9.84
2023-04-27T07:47:37.487Z,9.43
2023-04-27T07:50:04.989Z,9.76
2023-04-27T07:52:32.235Z,9.67
2023-04-27T07:54:59.147Z,9.40
2023-04-27T07:57:26.346Z,8.90
2023-04-27T07:59:53.660Z,8.26
2023-04-27T08:02:20.800Z,7.88
2023-04-27T08:04:48.947Z,8.30
2023-04-27T08:07:18.079Z,8.88
2023-04-27T08:09:45.433Z,8.98
2023-04-27T08:12:12.414Z,9.21
2023-04-27T08:14:39.385Z,9.49
2023-04-27T08:17:06.579Z,9.14
2023-04-27T08:19:33.552Z,9.48
2023-04-27T08:22:01.108Z,9.55
2023-04-27T08:24:27.984Z,9.31
2023-04-27T08:26:54.972Z,8.88
2023-04-27T08:29:27.900Z,8.62
2023-04-27T08:31:56.948Z,8.51
2023-04-27T08:34:24.308Z,8.84
2023-04-27T08:36:51.437Z,8.10
2023-04-27T08:39:18.554Z,8.07
2023-04-27T08:41:46.534Z,7.74
2023-04-27T08:44:13.626Z,7.51
2023-04-27T08:46:41.225Z,7.61
2023-04-27T08:49:08.335Z,7.70
2023-04-27T08:51:35.656Z,8.05
2023-04-27T08:54:02.666Z,8.34
2023-04-27T08:56:30.865Z,8.43
2023-04-27T08:58:59.092Z,8.64
2023-04-27T09:01:27.621Z,8.78
2023-04-27T09:03:59.991Z,8.70
2023-04-27T09:06:34.151Z,9.17
2023-04-27T09:09:02.200Z,9.25
2023-04-27T09:11:33.441Z,9.35
2023-04-27T09:14:02.009Z,9.60
2023-04-27T09:16:30.391Z,10.02
2023-04-27T09:18:58.660Z,9.77
2023-04-27T09:21:31.425Z,9.05
2023-04-27T09:23:58.677Z,8.86
2023-04-27T09:26:28.060Z,8.25
2023-04-27T09:28:59.037Z,8.44
2023-04-27T09:31:35.722Z,8.61
2023-04-27T09:34:03.296Z,8.71
2023-04-27T09:36:32.653Z,8.92
2023-04-27T09:39:04.918Z,8.65
2023-04-27T09:41:33.426Z,9.10
2023-04-27T09:44:02.512Z,9.33
2023-04-27T09:46:30.233Z,8.87
2023-04-27T09:48:57.847Z,9.38
2023-04-27T09:51:24.941Z,10.02
2023-04-27T09:53:59.007Z,10.05
2023-04-27T09:56:31.946Z,9.80
2023-04-27T09:59:37.513Z,10.30
2023-04-27T10:02:20.941Z,10.56
2023-04-27T10:05:22.602Z,10.30
2023-04-27T10:07:50.012Z,9.62
2023-04-27T10:10:21.178Z,9.56
2023-04-27T10:13:03.879Z,9.67
2023-04-27T10:15:30.914Z,9.63
2023-04-27T10:18:05.050Z,9.20
2023-04-27T10:20:33.988Z,8.79
2023-04-27T10:23:01.200Z,8.68
2023-04-27T10:25:41.805Z,8.57
2023-04-27T10:28:15.471Z,8.62
2023-04-27T10:30:46.893Z,8.78
2023-04-27T10:33:17.977Z,8.86
2023-04-27T10:35:54.253Z,8.98
2023-04-27T10:38:27.150Z,9.18
2023-04-27T10:41:02.697Z,9.38
2023-04-27T10:43:32.027Z,9.15
2023-04-27T10:46:13.921Z,9.45
2023-04-27T10:48:42.713Z,10.09
2023-04-27T10:51:09.988Z,10.14
2023-04-27T10:53:37.796Z,10.04
2023-04-27T10:56:07.184Z,10.38
2023-04-27T10:58:47.938Z,10.46
2023-04-27T11:01:27.114Z,10.60
2023-04-27T11:04:01.622Z,10.96
2023-04-27T11:06:30.529Z,11.24
2023-04-27T11:08:57.574Z,11.39
2023-04-27T11:11:25.361Z,10.60
2023-04-27T11:14:03.725Z,11.24
2023-04-27T11:16:33.690Z,11.63
2023-04-27T11:19:07.113Z,12.08
2023-04-27T11:21:34.202Z,12.42
2023-04-27T11:24:06.339Z,11.79
2023-04-27T11:26:33.594Z,11.83
2023-04-27T11:29:02.477Z,12.13
2023-04-27T11:31:39.915Z,11.90
2023-04-27T11:34:08.317Z,11.87
2023-04-27T11:36:35.191Z,11.38
2023-04-27T11:39:02.233Z,11.21
2023-04-27T11:41:38.171Z,11.05
2023-04-27T11:44:09.406Z,10.84
2023-04-27T11:46:38.247Z,10.86
2023-04-27T11:49:06.796Z,10.33
2023-04-27T11:51:33.809Z,10.59
2023-04-27T11:54:06.315Z,10.41
2023-04-27T11:56:39.130Z,9.95
2023-04-27T11:59:06.353Z,10.37
2023-04-27T12:01:38.136Z,10.83
2023-04-27T12:04:05.733Z,10.83
2023-04-27T12:06:33.887Z,10.64
2023-04-27T12:09:01.163Z,10.31
2023-04-27T12:11:28.250Z,10.52
2023-04-27T12:13:55.904Z,9.85
2023-04-27T12:16:23.237Z,9.52
2023-04-27T12:18:51.060Z,9.38
2023-04-27T12:21:18.588Z,9.27
2023-04-27T12:23:45.489Z,9.39
2023-04-27T12:26:14.950Z,9.30
2023-04-27T12:28:42.391Z,9.43
2023-04-27T12:31:13.441Z,9.27
2023-04-27T12:33:40.327Z,9.55
2023-04-27T12:36:07.603Z,9.76
2023-04-27T12:38:34.569Z,9.53
2023-04-27T12:41:02.500Z,9.85
2023-04-27T12:43:29.473Z,9.82
2023-04-27T12:45:56.597Z,9.94
2023-04-27T12:48:23.833Z,9.89
2023-04-27T12:50:51.143Z,9.99
2023-04-27T12:53:18.149Z,10.64
2023-04-27T12:55:45.271Z,10.62
2023-04-27T12:58:12.215Z,10.58
2023-04-27T13:00:39.427Z,10.07
2023-04-27T13:03:07.113Z,10.17
2023-04-27T13:05:34.137Z,10.42
2023-04-27T13:08:01.145Z,10.43
2023-04-27T13:10:29.492Z,10.46
2023-04-27T13:12:56.838Z,10.74
2023-04-27T13:15:23.815Z,10.58
2023-04-27T13:17:53.401Z,10.28
2023-04-27T13:20:20.831Z,9.90
2023-04-27T13:22:48.591Z,9.90
2023-04-27T13:25:16.996Z,9.84
2023-04-27T13:27:43.964Z,10.13
2023-04-27T13:30:11.120Z,9.82
2023-04-27T13:32:38.232Z,9.58
2023-04-27T13:35:05.698Z,9.80
2023-04-27T13:37:32.690Z,9.92
2023-04-27T13:39:59.604Z,10.15
2023-04-27T13:42:29.804Z,10.41
2023-04-27T13:44:59.491Z,10.33
2023-04-27T13:47:26.677Z,10.45
2023-04-27T13:49:53.695Z,10.79
2023-04-27T13:52:20.636Z,10.92
2023-04-27T13:54:47.543Z,10.79
2023-04-27T13:57:14.476Z,10.16
2023-04-27T13:59:41.365Z,9.40
2023-04-27T14:02:08.793Z,10.13
2023-04-27T14:04:35.834Z,10.44
2023-04-27T14:07:03.379Z,10.60
2023-04-27T14:09:30.620Z,10.19
2023-04-27T14:11:58.010Z,10.08
2023-04-27T14:14:25.219Z,9.77
2023-04-27T14:16:53.561Z,9.74
2023-04-27T14:19:20.924Z,9.60
2023-04-27T14:21:49.984Z,9.89
2023-04-27T14:24:16.938Z,10.03
2023-04-27T14:26:44.499Z,9.93
2023-04-27T14:29:12.042Z,10.01
2023-04-27T14:31:40.452Z,10.08
2023-04-27T14:34:08.582Z,10.23
2023-04-27T14:36:36.163Z,10.45
2023-04-27T14:39:04.594Z,10.41
2023-04-27T14:41:31.584Z,10.58
2023-04-27T14:43:58.639Z,10.29
2023-04-27T14:46:25.754Z,9.77
2023-04-27T14:48:52.828Z,9.57
2023-04-27T14:51:19.924Z,9.74
2023-04-27T14:53:46.878Z,9.83
2023-04-27T14:56:13.892Z,9.74
2023-04-27T14:58:41.719Z,9.91
2023-04-27T15:01:08.805Z,9.71
2023-04-27T15:03:35.989Z,10.01
2023-04-27T15:06:03.315Z,10.04
2023-04-27T15:08:32.658Z,9.93
2023-04-27T15:11:01.147Z,9.63
2023-04-27T15:13:28.765Z,9.63
2023-04-27T15:15:56.960Z,9.61
2023-04-27T15:18:24.983Z,9.49
2023-04-27T15:20:56.737Z,9.37
2023-04-27T15:23:25.028Z,9.27
2023-04-27T15:25:56.202Z,9.21
2023-04-27T15:28:23.941Z,9.36
2023-04-27T15:30:51.483Z,9.52
2023-04-27T15:33:18.722Z,9.54
2023-04-27T15:35:45.800Z,9.72
2023-04-27T15:38:15.397Z,9.58
2023-04-27T15:40:42.452Z,9.62
2023-04-27T15:43:09.485Z,9.56
2023-04-27T15:45:36.533Z,9.65
2023-04-27T15:48:03.801Z,9.69
2023-04-27T15:50:31.092Z,9.73
2023-04-27T15:52:58.124Z,9.65
2023-04-27T15:55:25.094Z,9.60
2023-04-27T15:57:52.006Z,9.73
2023-04-27T16:00:22.525Z,9.59
2023-04-27T16:02:49.796Z,9.60
2023-04-27T16:05:17.279Z,9.71
2023-04-27T16:07:45.087Z,9.78
2023-04-27T16:10:13.018Z,9.70
2023-04-27T16:12:40.295Z,9.55
2023-04-27T16:15:10.228Z,9.49
2023-04-27T16:17:37.920Z,9.46
2023-04-27T16:20:06.971Z,9.37
2023-04-27T16:22:37.261Z,9.56
2023-04-27T16:25:10.648Z,9.58
2023-04-27T16:27:38.850Z,9.68
2023-04-27T16:30:07.673Z,9.48
2023-04-27T16:32:35.708Z,9.34
2023-04-27T16:35:03.351Z,9.30
2023-04-27T16:37:30.291Z,9.22
2023-04-27T16:40:01.732Z,9.27
2023-04-27T16:42:28.884Z,9.34
2023-04-27T16:44:55.950Z,9.45
2023-04-27T16:47:23.127Z,9.26
2023-04-27T16:49:50.085Z,9.29
2023-04-27T16:52:18.179Z,9.38
2023-04-27T16:54:45.132Z,9.30
2023-04-27T16:57:13.415Z,9.23
2023-04-27T16:59:40.884Z,9.08
2023-04-27T17:02:22.959Z,9.11
2023-04-27T17:04:51.456Z,9.05
2023-04-27T17:07:18.878Z,9.00
2023-04-27T17:09:45.973Z,9.03
2023-04-27T17:12:14.116Z,9.05
2023-04-27T17:14:41.204Z,9.00
2023-04-27T17:17:08.181Z,9.03
2023-04-27T17:19:35.153Z,8.99
2023-04-27T17:22:02.081Z,9.01
2023-04-27T17:24:28.959Z,9.05
2023-04-27T17:26:55.953Z,8.99
2023-04-27T17:29:22.911Z,8.92
2023-04-27T17:31:50.720Z,8.79
2023-04-27T17:34:17.843Z,8.71
2023-04-27T17:36:44.781Z,8.70
2023-04-27T17:39:13.764Z,8.75
2023-04-27T17:41:41.347Z,8.81
2023-04-27T17:44:08.402Z,8.83
2023-04-27T17:46:38.064Z,8.71
2023-04-27T17:49:05.095Z,8.79
2023-04-27T17:51:33.054Z,8.80
2023-04-27T17:53:59.944Z,8.80
2023-04-27T17:56:27.001Z,8.76
2023-04-27T17:58:53.885Z,8.74
2023-04-27T18:01:20.973Z,8.70
2023-04-27T18:03:49.170Z,8.60
2023-04-27T18:06:16.260Z,8.51
2023-04-27T18:08:43.155Z,8.42
2023-04-27T18:11:10.094Z,7.94
2023-04-27T18:14:43.088Z,7.97
2023-04-27T18:17:10.075Z,7.52
2023-04-27T18:19:36.990Z,7.56
2023-04-27T18:22:03.947Z,7.32
2023-04-27T18:24:31.465Z,7.23
2023-04-27T18:26:58.357Z,7.13
2023-04-27T18:29:25.289Z,6.93
2023-04-27T18:31:53.596Z,6.76
2023-04-27T18:34:20.623Z,6.82
2023-04-27T18:36:51.858Z,6.60
2023-04-27T18:39:19.398Z,6.39
2023-04-27T18:41:46.554Z,6.32
2023-04-27T18:44:13.728Z,6.04
2023-04-27T18:46:40.842Z,5.98
2023-04-27T18:49:07.751Z,5.87
2023-04-27T18:51:34.914Z,5.86
2023-04-27T18:54:01.821Z,5.75
2023-04-27T18:56:28.854Z,5.75
2023-04-27T18:58:56.193Z,5.61
2023-04-27T19:01:27.976Z,5.55
2023-04-27T19:03:55.360Z,5.45
2023-04-27T19:06:22.555Z,5.20
2023-04-27T19:08:49.629Z,5.11
2023-04-27T19:11:16.671Z,5.09
2023-04-27T19:13:45.376Z,5.02
2023-04-27T19:16:12.499Z,5.08
2023-04-27T19:18:40.878Z,5.12
2023-04-27T19:21:10.127Z,5.12
2023-04-27T19:23:37.206Z,5.10
2023-04-27T19:26:12.429Z,4.96
2023-04-27T19:28:40.726Z,4.73
2023-04-27T19:31:07.878Z,4.53
2023-04-27T19:33:34.987Z,4.26
2023-04-27T19:36:01.974Z,4.23
2023-04-27T19:38:29.682Z,4.28
2023-04-27T19:40:56.678Z,4.25
2023-04-27T19:43:23.655Z,4.19
2023-04-27T19:45:51.379Z,4.20
2023-04-27T19:48:18.442Z,3.98
2023-04-27T19:50:45.364Z,3.97
2023-04-27T19:53:12.502Z,4.01
2023-04-27T19:55:40.692Z,3.99
2023-04-27T19:58:07.690Z,3.91
2023-04-27T20:00:34.683Z,3.71
2023-04-27T20:03:01.822Z,3.69
2023-04-27T20:05:29.162Z,3.68
2023-04-27T20:07:56.254Z,3.65
2023-04-27T20:10:23.206Z,3.59
2023-04-27T20:12:56.804Z,3.46
2023-04-27T20:15:24.998Z,3.44
2023-04-27T20:17:55.304Z,3.36
2023-04-27T20:20:22.351Z,2.96
2023-04-27T20:22:49.739Z,2.88
2023-04-27T20:25:16.660Z,2.88
2023-04-27T20:27:43.712Z,2.79
2023-04-27T20:30:11.102Z,2.91
2023-04-27T20:32:39.775Z,2.79
2023-04-27T20:35:11.572Z,3.06
2023-04-27T20:37:39.566Z,3.08
2023-04-27T20:40:08.021Z,3.10
2023-04-27T20:42:34.994Z,3.17
2023-04-27T20:45:02.223Z,3.13
2023-04-27T20:47:29.348Z,3.07
2023-04-27T20:49:56.463Z,3.05
2023-04-27T20:52:23.588Z,2.87
2023-04-27T20:54:51.227Z,3.11
2023-04-27T20:57:18.129Z,3.17
2023-04-27T20:59:45.040Z,3.11
2023-04-27T21:02:12.107Z,3.20
2023-04-27T21:04:39.695Z,3.15
2023-04-27T21:07:07.034Z,3.08
2023-04-27T21:09:34.009Z,3.21
2023-04-27T21:12:01.023Z,3.18
2023-04-27T21:14:27.974Z,3.22
2023-04-27T21:16:55.100Z,3.23
2023-04-27T21:19:22.296Z,3.26
2023-04-27T21:21:49.214Z,3.20
2023-04-27T21:24:16.169Z,3.22
2023-04-27T21:26:43.087Z,3.22
2023-04-27T21:29:10.079Z,3.17
2023-04-27T21:31:37.122Z,3.12
2023-04-27T21:34:04.386Z,3.08
2023-04-27T21:36:33.152Z,3.07
2023-04-27T21:39:00.132Z,2.98
2023-04-27T21:41:27.218Z,2.99
2023-04-27T21:43:54.188Z,3.14
2023-04-27T21:46:23.732Z,3.13
2023-04-27T21:48:50.871Z,3.09
2023-04-27T21:51:17.880Z,3.01
2023-04-27T21:53:44.756Z,2.66
2023-04-27T21:56:11.806Z,2.88
2023-04-27T21:58:38.743Z,2.67
2023-04-27T22:01:05.781Z,2.60
2023-04-27T22:03:32.963Z,2.59
2023-04-27T22:06:00.002Z,2.63
2023-04-27T22:08:26.946Z,2.62
2023-04-27T22:10:53.881Z,2.58
2023-04-27T22:13:20.909Z,2.62
2023-04-27T22:15:48.416Z,2.62
2023-04-27T22:18:16.083Z,2.63
2023-04-27T22:20:44.512Z,2.67
2023-04-27T22:23:11.803Z,2.77
2023-04-27T22:25:38.791Z,2.82
2023-04-27T22:28:05.761Z,2.95
2023-04-27T22:30:32.740Z,2.88
2023-04-27T22:32:59.788Z,2.77
2023-04-27T22:35:27.865Z,2.62
2023-04-27T22:37:59.326Z,2.59
2023-04-27T22:40:26.503Z,2.51
2023-04-27T22:42:55.158Z,2.43
2023-04-27T22:45:23.266Z,2.59
2023-04-27T22:47:50.350Z,2.67
2023-04-27T22:50:17.709Z,2.73
2023-04-27T22:52:44.751Z,2.80
2023-04-27T22:55:12.572Z,2.92
2023-04-27T22:57:41.341Z,2.98
2023-04-27T23:00:12.127Z,2.91
2023-04-27T23:02:40.712Z,2.91
2023-04-27T23:05:08.429Z,3.04
2023-04-27T23:07:36.336Z,3.10
2023-04-27T23:10:03.714Z,3.12
2023-04-27T23:12:31.583Z,3.11
2023-04-27T23:14:59.538Z,3.13
2023-04-27T23:17:31.114Z,3.10
2023-04-27T23:19:59.104Z,3.08
2023-04-27T23:22:26.935Z,3.12
2023-04-27T23:24:54.609Z,3.12
2023-04-27T23:27:22.801Z,3.17
2023-04-27T23:29:49.721Z,3.20
2023-04-27T23:32:17.340Z,3.24
2023-04-27T23:34:44.229Z,3.11
2023-04-27T23:37:11.220Z,3.34
2023-04-27T23:39:38.575Z,3.38
2023-04-27T23:42:05.593Z,3.38
2023-04-27T23:44:32.533Z,3.29
2023-04-27T23:46:59.437Z,3.27
2023-04-27T23:49:26.409Z,3.18
2023-04-27T23:51:53.343Z,3.19
2023-04-27T23:54:20.293Z,3.20
2023-04-27T23:56:47.464Z,3.25
2023-04-27T23:59:15.231Z,3.29
